Time;durP1;ratioP1;P1;durP2;ratioP2;P2;SDS_P1;SDS_P2;PMS_P1;PMS_P2;Temp;Humidity;BMP_temperature;BMP_pressure;BME280_temperature;BME280_humidity;BME280_pressure;Samples;Min_cycle;Max_cycle;Signal;HPM_P1;HPM_P2
2021/07/09 00:01:55;;;;;;;;;;;;;;;19.80;72.75;101131.69;1745170;82;20161;-67
2021/07/09 00:04:22;;;;;;;;;;;;;;;19.72;73.04;101129.63;1745066;82;21116;-67
2021/07/09 00:06:49;;;;;;;;;;;;;;;19.67;73.30;101129.62;1745092;82;20117;-67
2021/07/09 00:09:16;;;;;;;;;;;;;;;19.63;73.42;101121.08;1745015;82;20155;-68
2021/07/09 00:11:47;;;;;;;;;;;;;;;19.61;73.67;101128.28;1746281;81;20564;-67
2021/07/09 00:14:15;;;;;;;;;;;;;;;19.60;73.74;101126.59;1759180;81;20129;-67
2021/07/09 00:16:44;;;;;;;;;;;;;;;19.60;73.97;101123.48;1759146;81;20138;-68
2021/07/09 00:19:12;;;;;;;;;;;;;;;19.56;73.98;101122.54;1759171;81;20415;-68
2021/07/09 00:21:40;;;;;;;;;;;;;;;19.55;74.19;101114.25;1759160;81;20109;-68
2021/07/09 00:24:08;;;;;;;;;;;;;;;19.54;74.35;101120.02;1759228;81;20184;-68
2021/07/09 00:26:35;;;;;;;;;;;;;;;19.55;74.40;101118.21;1759267;81;20129;-67
2021/07/09 00:29:03;;;;;;;;;;;;;;;19.55;74.43;101119.53;1759168;81;20117;-67
2021/07/09 00:31:30;;;;;;;;;;;;;;;19.50;74.24;101119.01;1759256;81;20140;-67
2021/07/09 00:33:57;;;;;;;;;;;;;;;19.45;74.27;101123.31;1759458;81;20129;-67
2021/07/09 00:36:24;;;;;;;;;;;;;;;19.41;74.51;101119.70;1759130;81;20145;-67
2021/07/09 00:38:52;;;;;;;;;;;;;;;19.38;74.93;101135.77;1759243;81;20118;-67
2021/07/09 00:41:21;;;;;;;;;;;;;;;19.26;75.00;101138.37;1759110;81;21093;-67
2021/07/09 00:43:47;;;;;;;;;;;;;;;19.11;75.48;101134.26;1759386;81;20117;-67
2021/07/09 00:46:14;;;;;;;;;;;;;;;18.97;76.00;101130.47;1759179;81;20157;-67
2021/07/09 00:48:43;;;;;;;;;;;;;;;18.86;76.45;101131.25;1759209;81;20125;-67
2021/07/09 00:51:10;;;;;;;;;;;;;;;18.78;77.01;101130.99;1759265;81;20240;-67
2021/07/09 00:53:38;;;;;;;;;;;;;;;18.71;77.50;101130.23;1759215;81;20165;-68
2021/07/09 00:56:05;;;;;;;;;;;;;;;18.63;77.77;101130.78;1759174;81;20117;-68
2021/07/09 00:58:32;;;;;;;;;;;;;;;18.59;78.13;101130.12;1759164;81;20137;-68
2021/07/09 01:00:59;;;;;;;;;;;;;;;18.57;78.60;101136.46;1759069;81;20129;-68
2021/07/09 01:03:26;;;;;;;;;;;;;;;18.54;78.82;101130.08;1759393;81;20443;-68
2021/07/09 01:05:52;;;;;;;;;;;;;;;18.53;78.92;101132.35;1759180;81;21078;-68
2021/07/09 01:08:19;;;;;;;;;;;;;;;18.52;79.37;101127.55;1759425;81;20121;-68
2021/07/09 01:10:48;;;;;;;;;;;;;;;18.51;79.73;101126.34;1759205;81;20419;-68
2021/07/09 01:13:15;;;;;;;;;;;;;;;18.48;80.32;101122.13;1750952;81;20133;-67
2021/07/09 01:15:43;;;;;;;;;;;;;;;18.47;81.14;101124.41;1745115;82;20110;-67
2021/07/09 01:18:10;;;;;;;;;;;;;;;18.47;81.57;101132.31;1744978;82;21552;-68
2021/07/09 01:20:39;;;;;;;;;;;;;;;18.47;81.65;101129.67;1745037;82;20450;-68
2021/07/09 01:23:06;;;;;;;;;;;;;;;18.48;81.99;101124.77;1745064;82;20130;-68
2021/07/09 01:25:33;;;;;;;;;;;;;;;18.49;81.96;101128.25;1745052;82;20129;-68
2021/07/09 01:28:03;;;;;;;;;;;;;;;18.48;82.14;101122.13;1745295;82;20130;-68
2021/07/09 01:30:29;;;;;;;;;;;;;;;18.52;82.16;101131.98;1745075;82;21132;-68
2021/07/09 01:32:56;;;;;;;;;;;;;;;18.54;82.18;101124.80;1745289;82;20145;-68
2021/07/09 01:35:24;;;;;;;;;;;;;;;18.55;82.09;101122.06;1744990;82;20138;-68
2021/07/09 01:38:01;;;;;;;;;;;;;;;18.56;82.21;101113.20;1745270;82;20117;-68
2021/07/09 01:40:28;;;;;;;;;;;;;;;18.58;82.18;101117.88;1745032;82;20171;-68
2021/07/09 01:42:55;;;;;;;;;;;;;;;18.61;82.05;101117.70;1745284;82;21052;-68
2021/07/09 01:45:22;;;;;;;;;;;;;;;18.64;81.95;101112.20;1744915;82;20464;-68
2021/07/09 01:47:49;;;;;;;;;;;;;;;18.70;82.01;101116.19;1745327;82;20153;-68
2021/07/09 01:50:16;;;;;;;;;;;;;;;18.72;81.70;101117.40;1746853;81;20134;-68
2021/07/09 01:52:45;;;;;;;;;;;;;;;18.75;81.65;101115.38;1755902;81;20094;-68
2021/07/09 01:55:13;;;;;;;;;;;;;;;18.78;81.48;101130.16;1758316;81;22117;-68
2021/07/09 01:57:40;;;;;;;;;;;;;;;18.76;80.70;101127.63;1758258;81;20097;-68
2021/07/09 02:00:13;;;;;;;;;;;;;;;18.71;80.30;101126.27;1758268;81;20435;-68
2021/07/09 02:02:40;;;;;;;;;;;;;;;18.63;80.05;101125.02;1758218;81;20081;-68
2021/07/09 02:05:09;;;;;;;;;;;;;;;18.57;80.30;101129.39;1758569;81;20396;-68
2021/07/09 02:07:37;;;;;;;;;;;;;;;18.53;80.62;101124.44;1758320;81;21127;-68
2021/07/09 02:10:06;;;;;;;;;;;;;;;18.50;80.69;101117.59;1758163;81;20070;-68
2021/07/09 02:12:35;;;;;;;;;;;;;;;18.44;80.78;101123.30;1759678;81;20442;-68
2021/07/09 02:15:05;;;;;;;;;;;;;;;18.40;81.24;101120.52;1766422;81;20073;-68
2021/07/09 02:17:33;;;;;;;;;;;;;;;18.36;81.76;101116.44;1766383;81;20097;-68
2021/07/09 02:20:00;;;;;;;;;;;;;;;18.35;82.02;101125.30;1766375;81;21132;-68
2021/07/09 02:22:28;;;;;;;;;;;;;;;18.35;82.06;101124.45;1766626;81;20081;-68
2021/07/09 02:24:56;;;;;;;;;;;;;;;18.41;82.14;101126.62;1766347;81;20112;-68
2021/07/09 02:27:22;;;;;;;;;;;;;;;18.56;81.91;101126.86;1737495;81;20469;-68
2021/07/09 02:29:52;;;;;;;;;;;;;;;18.74;81.27;101117.66;1766428;81;20101;-68
2021/07/09 02:32:18;;;;;;;;;;;;;;;19.01;80.39;101108.17;1766531;81;21875;-68
2021/07/09 02:34:44;;;;;;;;;;;;;;;19.37;79.17;101117.77;1766421;81;20112;-68
2021/07/09 02:37:13;;;;;;;;;;;;;;;19.75;77.65;101113.55;1766535;81;20111;-68
2021/07/09 02:39:40;;;;;;;;;;;;;;;20.15;76.15;101115.23;1766196;81;20073;-68
2021/07/09 02:42:07;;;;;;;;;;;;;;;20.56;74.43;101117.72;1765678;81;20073;-68
2021/07/09 02:44:34;;;;;;;;;;;;;;;20.94;72.86;101114.11;1766310;81;21103;-68
2021/07/09 02:47:02;;;;;;;;;;;;;;;21.35;71.03;101116.47;1766294;81;20085;-68
2021/07/09 02:49:28;;;;;;;;;;;;;;;21.70;69.31;101113.95;1766273;81;20135;-68
2021/07/09 02:51:55;;;;;;;;;;;;;;;22.05;68.13;101117.56;1766568;81;20443;-68
2021/07/09 02:54:22;;;;;;;;;;;;;;;22.47;66.59;101118.25;1766404;81;20156;-69
2021/07/09 02:56:49;;;;;;;;;;;;;;;22.87;64.32;101119.52;1766570;81;21095;-68
2021/07/09 02:59:16;;;;;;;;;;;;;;;23.23;62.97;101116.64;1766296;81;20439;-69
2021/07/09 03:01:42;;;;;;;;;;;;;;;23.59;61.73;101105.27;1766531;81;20113;-68
2021/07/09 03:04:10;;;;;;;;;;;;;;;23.92;60.49;101103.09;1766235;81;20126;-68
2021/07/09 03:06:37;;;;;;;;;;;;;;;24.25;59.07;101106.53;1766318;81;20125;-68
2021/07/09 03:09:05;;;;;;;;;;;;;;;24.56;57.93;101103.03;1766375;81;21079;-67
2021/07/09 03:11:32;;;;;;;;;;;;;;;24.84;56.97;101101.63;1766654;81;20114;-67
2021/07/09 03:13:59;;;;;;;;;;;;;;;25.10;55.97;101097.25;1761134;81;20157;-67
2021/07/09 03:16:26;;;;;;;;;;;;;;;25.37;55.28;101093.61;1758146;81;20125;-68
2021/07/09 03:18:52;;;;;;;;;;;;;;;25.68;54.69;101101.16;1758330;81;20450;-68
2021/07/09 03:21:19;;;;;;;;;;;;;;;26.02;53.47;101103.82;1758211;81;21123;-67
2021/07/09 03:23:47;;;;;;;;;;;;;;;26.34;52.46;101100.00;1758125;81;20117;-67
2021/07/09 03:26:15;;;;;;;;;;;;;;;26.66;51.32;101107.23;1758209;81;20431;-67
2021/07/09 03:28:44;;;;;;;;;;;;;;;26.84;50.48;101102.57;1758212;81;20097;-68
2021/07/09 03:31:12;;;;;;;;;;;;;;;26.95;50.15;101105.42;1758225;81;20113;-68
2021/07/09 03:33:39;;;;;;;;;;;;;;;27.05;49.80;101108.81;1758331;81;21719;-68
2021/07/09 03:36:07;;;;;;;;;;;;;;;27.11;49.34;101100.12;1758168;81;20098;-68
2021/07/09 03:38:35;;;;;;;;;;;;;;;27.14;49.01;101105.14;1758137;81;20412;-68
2021/07/09 03:41:01;;;;;;;;;;;;;;;27.22;48.99;101101.60;1758405;81;20089;-67
2021/07/09 03:43:29;;;;;;;;;;;;;;;27.34;48.85;101102.94;1758162;81;20125;-67
2021/07/09 03:45:56;;;;;;;;;;;;;;;27.51;48.32;101095.73;1758533;81;21095;-67
2021/07/09 03:48:22;;;;;;;;;;;;;;;27.55;48.14;101100.58;1758195;81;20098;-67
2021/07/09 03:50:49;;;;;;;;;;;;;;;27.75;47.57;101101.04;1758535;81;20145;-67
2021/07/09 03:53:16;;;;;;;;;;;;;;;27.88;47.55;101103.19;1758200;81;20093;-67
2021/07/09 03:55:42;;;;;;;;;;;;;;;28.16;47.40;101103.56;1758435;81;20089;-67
2021/07/09 03:58:09;;;;;;;;;;;;;;;28.45;46.75;101102.93;1758251;81;21097;-67
2021/07/09 04:00:36;;;;;;;;;;;;;;;28.71;46.51;101106.13;1758420;81;20097;-67
2021/07/09 04:03:02;;;;;;;;;;;;;;;28.97;45.98;101101.77;1758149;81;20097;-67
2021/07/09 04:05:29;;;;;;;;;;;;;;;29.22;45.73;101109.08;1758231;81;20094;-67
2021/07/09 04:07:56;;;;;;;;;;;;;;;29.36;44.81;101105.61;1758368;81;20093;-67
2021/07/09 04:10:27;;;;;;;;;;;;;;;29.45;43.25;101103.72;1758136;81;20212;-66
2021/07/09 04:12:53;;;;;;;;;;;;;;;29.39;42.69;101108.44;1757940;81;20081;-67
2021/07/09 04:15:20;;;;;;;;;;;;;;;29.32;42.80;101104.30;1758236;81;20086;-67
2021/07/09 04:17:47;;;;;;;;;;;;;;;29.53;42.03;101108.50;1758070;81;20142;-66
2021/07/09 04:20:14;;;;;;;;;;;;;;;29.54;42.19;101105.30;1758179;81;20081;-67
2021/07/09 04:22:41;;;;;;;;;;;;;;;29.72;41.81;101110.30;1758211;81;21129;-67
2021/07/09 04:25:09;;;;;;;;;;;;;;;30.01;41.19;101110.82;1758161;81;20109;-67
2021/07/09 04:27:40;;;;;;;;;;;;;;;30.15;41.10;101111.32;1758121;81;20098;-67
2021/07/09 04:30:08;;;;;;;;;;;;;;;30.38;40.51;101109.34;1758274;81;20094;-67
2021/07/09 04:32:35;;;;;;;;;;;;;;;30.45;40.13;101108.88;1758163;81;20086;-67
2021/07/09 04:35:02;;;;;;;;;;;;;;;30.48;40.42;101113.88;1758123;81;21509;-67
2021/07/09 04:37:30;;;;;;;;;;;;;;;30.71;40.24;101112.93;1758134;81;20148;-67
2021/07/09 04:39:57;;;;;;;;;;;;;;;30.98;39.67;101108.11;1758101;81;20082;-67
2021/07/09 04:42:24;;;;;;;22.10;17.70;;;;;;;31.15;39.33;101106.85;1756606;81;20089;-67
2021/07/09 04:44:52;;;;;;;19.98;16.97;;;;;;;31.24;38.31;101112.91;1761360;80;21493;-67
2021/07/09 04:47:20;;;;;;;9.13;6.03;;;;;;;31.37;38.34;101115.70;1760129;80;20926;-67
2021/07/09 04:49:49;;;;;;;3.27;2.98;;;;;;;31.64;38.05;101110.48;1761320;80;20983;-68
2021/07/09 04:52:19;;;;;;;3.75;2.98;;;;;;;31.89;36.60;101118.45;1759602;80;20923;-64
2021/07/09 04:54:46;;;;;;;9.45;2.77;;;;;;;31.95;36.20;101116.31;1763059;80;21080;-65
2021/07/09 04:57:14;;;;;;;4.55;3.70;;;;;;;31.93;36.65;101111.64;1760214;80;20899;-64
2021/07/09 04:59:41;;;;;;;7.03;5.05;;;;;;;32.13;36.72;101106.32;1749360;80;22330;-65
2021/07/09 05:02:09;;;;;;;6.05;3.47;;;;;;;32.40;37.45;101108.09;1740270;80;39294;-67
2021/07/09 05:04:36;;;;;;;4.22;3.33;;;;;;;32.75;37.72;101109.38;1714919;82;21595;-64
2021/07/09 05:07:04;;;;;;;4.03;3.58;;;;;;;33.06;37.60;101099.32;1751564;82;21608;-64
2021/07/09 05:09:31;;;;;;;6.65;4.47;;;;;;;33.29;36.85;101097.56;1779443;80;20963;-64
2021/07/09 05:11:58;;;;;;;6.10;5.08;;;;;;;33.38;36.70;101107.94;1742294;82;21042;-64
2021/07/09 05:14:27;;;;;;;5.80;3.87;;;;;;;33.33;36.63;101105.04;1768423;80;21651;-64
2021/07/09 05:16:55;;;;;;;5.22;3.80;;;;;;;33.27;36.78;101107.22;1765724;81;20896;-64
2021/07/09 05:19:22;;;;;;;5.10;3.30;;;;;;;33.21;36.55;101105.84;1757148;81;21098;-65
2021/07/09 05:21:50;;;;;;;4.20;3.10;;;;;;;33.23;36.68;101106.45;1749024;81;21012;-67
2021/07/09 05:24:24;;;;;;;3.92;3.10;;;;;;;33.38;36.37;101099.84;1753770;81;20982;-67
2021/07/09 05:26:50;;;;;;;4.10;2.50;;;;;;;33.62;36.30;101102.38;1761779;81;20969;-70
2021/07/09 05:29:17;;;;;;;4.92;2.72;;;;;;;33.94;35.49;101107.44;1755279;81;20876;-67
2021/07/09 05:31:44;;;;;;;5.58;2.60;;;;;;;34.22;35.03;101110.33;1764678;81;20899;-65
2021/07/09 05:34:11;;;;;;;4.58;2.62;;;;;;;34.26;34.48;101106.98;1765115;81;21466;-65
2021/07/09 05:36:38;;;;;;;4.40;2.65;;;;;;;34.35;34.21;101107.07;1766203;81;21506;-63
2021/07/09 05:39:05;;;;;;;5.22;2.30;;;;;;;34.51;33.44;101114.35;1754409;81;21110;-63
2021/07/09 05:41:34;;;;;;;3.25;2.75;;;;;;;34.65;33.15;101116.77;1746283;82;21523;-65
2021/07/09 05:44:01;;;;;;;5.47;2.98;;;;;;;34.86;32.48;101112.89;1757146;81;21040;-66
2021/07/09 05:46:29;;;;;;;3.95;3.17;;;;;;;34.93;32.20;101116.38;1759410;81;21035;-67
2021/07/09 05:48:56;;;;;;;5.12;4.20;;;;;;;35.05;32.22;101120.56;1753238;81;21062;-66
2021/07/09 05:51:23;;;;;;;4.85;4.33;;;;;;;35.10;33.17;101120.22;1760901;81;20985;-64
2021/07/09 05:53:50;;;;;;;4.95;4.53;;;;;;;35.00;33.39;101113.62;1763073;81;20902;-65
2021/07/09 05:56:17;;;;;;;4.47;4.03;;;;;;;35.02;33.23;101114.23;1726215;81;21513;-63
2021/07/09 05:58:53;;;;;;;5.78;4.20;;;;;;;35.18;32.54;101112.87;1768180;81;21011;-67
2021/07/09 06:01:24;;;;;;;5.83;3.87;;;;;;;35.28;32.42;101109.94;1753011;81;21362;-65
2021/07/09 06:03:53;;;;;;;6.47;3.75;;;;;;;35.38;32.27;101115.72;1726931;81;20955;-66
2021/07/09 06:06:20;;;;;;;5.75;4.10;;;;;;;35.58;31.39;101111.47;1737194;81;20941;-63
2021/07/09 06:08:49;;;;;;;4.53;3.47;;;;;;;35.73;31.24;101113.79;1760499;81;21009;-65
2021/07/09 06:11:17;;;;;;;5.50;3.10;;;;;;;35.75;31.05;101115.22;1762355;81;20919;-66
2021/07/09 06:13:45;;;;;;;7.53;3.65;;;;;;;35.74;29.90;101109.50;1753059;80;21027;-65
2021/07/09 06:16:14;;;;;;;3.47;3.17;;;;;;;35.71;30.38;101108.59;1742932;81;20999;-66
2021/07/09 06:18:41;;;;;;;3.40;3.17;;;;;;;35.69;30.16;101101.21;1773777;79;20951;-65
2021/07/09 06:21:10;;;;;;;4.20;3.00;;;;;;;35.69;30.59;101104.45;1785332;79;20997;-65
2021/07/09 06:23:39;;;;;;;5.33;3.30;;;;;;;35.73;30.18;101105.66;1767273;79;20884;-65
2021/07/09 06:26:06;;;;;;;3.55;3.25;;;;;;;35.82;30.45;101102.98;1728092;81;21740;-67
2021/07/09 06:28:35;;;;;;;3.22;2.98;;;;;;;35.88;30.40;101093.95;1789611;79;20919;-67
2021/07/09 06:31:03;;;;;;;5.62;3.10;;;;;;;35.86;30.74;101097.94;1741448;82;20947;-65
2021/07/09 06:33:30;;;;;;;4.55;2.90;;;;;;;35.82;30.32;101102.16;1789827;79;20943;-68
2021/07/09 06:35:57;;;;;;;3.60;2.75;;;;;;;35.78;30.48;101096.85;1733651;82;21595;-67
2021/07/09 06:38:30;;;;;;;3.52;2.80;;;;;;;35.78;30.29;101087.36;1736090;81;21178;-69
2021/07/09 06:41:02;;;;;;;3.62;2.62;;;;;;;35.78;29.99;101095.00;1736746;80;21570;-71
2021/07/09 06:43:29;;;;;;;3.75;2.45;;;;;;;35.65;29.72;101097.82;1715565;82;21093;-66
2021/07/09 06:45:56;;;;;;;7.17;2.55;;;;;;;35.46;29.63;101095.64;1787698;79;21013;-65
2021/07/09 06:48:23;;;;;;;5.03;2.47;;;;;;;35.56;29.78;101095.13;1734098;82;21047;-69
2021/07/09 06:50:50;;;;;;;2.85;2.58;;;;;;;35.70;29.31;101082.55;1778070;79;21118;-69
2021/07/09 06:53:17;;;;;;;6.08;2.87;;;;;;;35.86;29.04;101081.67;1739583;82;20983;-71
2021/07/09 06:55:45;;;;;;;7.08;2.47;;;;;;;36.02;28.95;101081.87;1782572;79;21552;-68
2021/07/09 06:58:12;;;;;;;3.05;2.52;;;;;;;36.07;27.72;101083.37;1740002;81;20983;-69
2021/07/09 07:00:40;;;;;;;5.65;2.10;;;;;;;35.98;27.24;101083.94;1780089;79;20974;-70
2021/07/09 07:03:07;;;;;;;3.30;2.00;;;;;;;36.04;26.53;101082.99;1744651;81;21494;-68
2021/07/09 07:05:34;;;;;;;2.17;2.00;;;;;;;36.20;24.42;101085.61;1751562;81;21459;-69
2021/07/09 07:08:18;;;;;;;2.65;2.30;;;;;;;36.38;24.04;101082.38;1775702;79;20987;-64
2021/07/09 07:10:46;;;;;;;3.50;2.30;;;;;;;36.41;23.21;101083.77;1742073;82;21042;-66
2021/07/09 07:13:14;;;;;;;6.97;2.58;;;;;;;36.32;23.05;101081.11;1778977;79;21021;-65
2021/07/09 07:15:41;;;;;;;2.45;2.00;;;;;;;36.39;23.11;101081.28;1735293;81;21110;-66
2021/07/09 07:18:08;;;;;;;3.62;2.02;;;;;;;36.34;23.45;101085.77;1686727;82;20986;-68
2021/07/09 07:20:39;;;;;;;5.03;2.10;;;;;;;36.20;22.46;101087.80;1739815;80;21513;-65
2021/07/09 07:23:07;;;;;;;3.25;1.80;;;;;;;36.10;22.49;101088.86;1775208;79;20997;-68
2021/07/09 07:25:36;;;;;;;2.52;2.00;;;;;;;36.01;22.39;101082.92;1779851;79;20839;-67
2021/07/09 07:28:04;;;;;;;2.05;1.90;;;;;;;36.03;22.25;101083.52;1765780;79;21965;-71
2021/07/09 07:30:31;;;;;;;2.10;1.90;;;;;;;36.00;23.08;101092.11;1771730;79;20922;-67
2021/07/09 07:32:58;;;;;;;1.92;1.37;;;;;;;35.87;21.99;101088.75;1761091;79;21528;-71
2021/07/09 07:35:26;;;;;;;8.85;1.62;;;;;;;35.56;22.14;101084.30;1790127;79;21454;-75
2021/07/09 07:37:53;;;;;;;2.98;1.95;;;;;;;35.38;22.44;101079.67;1758396;79;20914;-73
2021/07/09 07:40:20;;;;;;;3.77;1.75;;;;;;;35.44;22.08;101073.36;1748749;79;21743;-69
2021/07/09 07:42:47;;;;;;;3.20;2.00;;;;;;;35.64;22.09;101063.65;1768522;79;21524;-62
2021/07/09 07:45:16;;;;;;;2.08;1.70;;;;;;;35.81;21.97;101057.13;1791381;79;21513;-67
2021/07/09 07:47:43;;;;;;;2.55;1.75;;;;;;;35.81;22.01;101060.67;1768000;79;20906;-71
2021/07/09 07:50:12;;;;;;;6.37;2.70;;;;;;;35.91;22.38;101062.85;1721600;81;20986;-68
2021/07/09 07:52:49;;;;;;;2.15;1.95;;;;;;;36.11;22.63;101068.83;1746684;82;21638;-73
2021/07/09 07:55:13;;;;;;;2.00;1.80;;;;;;;36.21;21.26;101065.05;1746017;80;20973;-72
2021/07/09 07:57:40;;;;;;;4.22;1.87;;;;;;;36.04;21.27;101062.13;1746237;82;21502;-71
2021/07/09 08:00:09;;;;;;;3.12;1.82;;;;;;;36.09;21.55;101060.09;1746176;82;20960;-71
2021/07/09 08:02:40;;;;;;;4.50;1.92;;;;;;;36.04;21.54;101061.30;1746693;82;21586;-74
2021/07/09 08:05:09;;;;;;;4.65;2.15;;;;;;;35.85;21.30;101066.47;1746959;82;21480;-66
2021/07/09 08:07:37;;;;;;;2.20;2.00;;;;;;;35.40;22.36;101072.16;1751939;80;20966;-71
2021/07/09 08:10:06;;;;;;;3.20;2.15;;;;;;;34.95;23.13;101072.33;1777795;80;20914;-72
2021/07/09 08:12:33;;;;;;;3.50;2.00;;;;;;;34.65;23.69;101064.53;1777748;80;20926;-66
2021/07/09 08:15:04;;;;;;;5.10;3.25;;;;;;;34.48;23.92;101056.11;1769963;80;20935;-69
2021/07/09 08:17:31;;;;;;;4.65;2.80;;;;;;;34.35;24.05;101058.40;1748947;81;21329;-66
2021/07/09 08:19:59;;;;;;;3.00;2.47;;;;;;;33.92;24.87;101058.69;1730336;81;21029;-71
2021/07/09 08:22:26;;;;;;;5.10;2.45;;;;;;;33.81;24.98;101052.08;1713945;82;20916;-68
2021/07/09 08:24:53;;;;;;;;;;;;;;;33.75;24.35;101051.02;1751456;81;21489;-67
2021/07/09 08:27:20;;;;;;;;;;;;;;;33.62;25.00;101048.36;1736475;81;20136;-74
2021/07/09 08:29:46;;;;;;;;;;;;;;;33.62;24.59;101054.28;1746879;81;21128;-66
2021/07/09 08:32:13;;;;;;;;;;;;;;;33.32;25.06;101058.00;1742406;81;20095;-67
2021/07/09 08:34:42;;;;;;;;;;;;;;;33.13;25.40;101043.47;1741967;80;20192;-65
2021/07/09 08:37:09;;;;;;;;;;;;;;;33.14;25.67;101047.31;1697556;82;20092;-66
2021/07/09 08:39:38;;;;;;;;;;;;;;;33.27;25.42;101055.06;1762793;80;20134;-72
2021/07/09 08:42:08;;;;;;;;;;;;;;;33.26;24.69;101046.13;1759310;81;21538;-68
2021/07/09 08:44:36;;;;;;;;;;;;;;;33.09;25.39;101043.58;1730775;82;20114;-74
2021/07/09 08:47:04;;;;;;;;;;;;;;;33.05;25.28;101038.28;1752424;81;20120;-72
2021/07/09 08:49:32;;;;;;;;;;;;;;;32.81;25.52;101035.69;1759055;81;20110;-70
2021/07/09 08:51:59;;;;;;;;;;;;;;;32.64;25.56;101036.59;1734489;81;20131;-73
2021/07/09 08:54:26;;;;;;;;;;;;;;;32.61;26.05;101042.92;1745111;81;21067;-71
2021/07/09 08:56:55;;;;;;;;;;;;;;;32.63;26.05;101036.80;1742315;81;20123;-70
2021/07/09 08:59:22;;;;;;;;;;;;;;;32.60;26.50;101034.00;1758660;80;20117;-71
2021/07/09 09:01:58;;;;;;;;;;;;;;;32.77;26.19;101028.55;1747664;81;20176;-73
2021/07/09 09:04:32;;;;;;;;;;;;;;;32.80;26.03;101032.16;1756829;81;20147;-71
2021/07/09 09:07:05;;;;;;;;;;;;;;;32.56;26.29;101033.27;1741110;81;21051;-69
2021/07/09 09:09:37;;;;;;;;;;;;;;;32.30;26.35;101025.98;1752003;81;20101;-66
2021/07/09 09:12:08;;;;;;;;;;;;;;;32.15;26.25;101017.50;1745654;80;20094;-67
2021/07/09 09:14:38;;;;;;;;;;;;;;;32.07;26.68;101020.37;1756785;80;20144;-67
2021/07/09 09:17:28;;;;;;;;;;;;;;;31.95;28.05;101009.06;1757356;81;20124;-68
2021/07/09 09:20:16;;;;;;;;;;;;;;;31.86;28.65;101009.75;1758823;81;21553;-74
2021/07/09 09:22:50;;;;;;;;;;;;;;;31.88;28.70;101005.00;1756024;81;20399;-72
2021/07/09 09:25:20;;;;;;;;;;;;;;;31.88;28.75;100996.91;1760538;81;20093;-68
2021/07/09 09:27:59;;;;;;;;;;;;;;;31.82;28.12;100998.55;1752091;81;20137;-70
2021/07/09 09:30:26;;;;;;;;;;;;;;;31.71;28.34;100999.12;1757797;81;20101;-76
2021/07/09 09:32:55;;;;;;;;;;;;;;;31.59;28.98;100989.91;1763581;80;21117;-68
2021/07/09 09:35:26;;;;;;;;;;;;;;;31.36;29.45;100984.84;1762114;81;20171;-68
2021/07/09 09:37:56;;;;;;;;;;;;;;;31.21;29.68;100981.43;1756554;81;20192;-67
2021/07/09 09:40:25;;;;;;;;;;;;;;;31.13;29.98;100981.61;1751285;81;20116;-68
2021/07/09 09:42:54;;;;;;;;;;;;;;;31.04;30.49;100982.24;1755190;81;20130;-78
2021/07/09 09:45:23;;;;;;;;;;;;;;;30.84;30.22;100997.39;1750249;82;21153;-71
2021/07/09 09:47:50;;;;;;;;;;;;;;;30.64;30.44;100992.38;1748789;82;20140;-69
2021/07/09 09:50:20;;;;;;;;;;;;;;;30.54;30.58;100991.33;1758833;81;20325;-71
2021/07/09 09:52:50;;;;;;;;;;;;;;;30.53;30.96;100981.09;1755976;80;20084;-71
2021/07/09 09:55:32;;;;;;;;;;;;;;;30.56;31.37;100978.53;1762434;81;20098;-68
2021/07/09 09:58:14;;;;;;;;;;;;;;;30.61;31.30;100972.60;1763073;81;21124;-66
2021/07/09 10:00:42;;;;;;;;;;;;;;;30.64;31.37;100964.98;1754098;81;20101;-73
2021/07/09 10:03:09;;;;;;;;;;;;;;;30.58;31.35;100959.03;1758169;81;20155;-69
2021/07/09 10:05:37;;;;;;;;;;;;;;;30.50;31.53;100957.79;1768347;81;20162;-65
2021/07/09 10:08:11;;;;;;;;;;;;;;;30.44;31.73;100967.45;1770835;81;20167;-69
2021/07/09 10:10:39;;;;;;;;;;;;;;;30.38;31.30;100965.56;1770432;81;21115;-65
2021/07/09 10:13:07;;;;;;;;;;;;;;;30.28;31.06;100957.50;1759725;81;20106;-65
2021/07/09 10:15:34;;;;;;;;;;;;;;;30.13;31.89;100961.07;1762923;81;20113;-64
2021/07/09 10:18:01;;;;;;;;;;;;;;;30.08;32.03;100960.80;1759207;81;20153;-65
2021/07/09 10:20:28;;;;;;;;;;;;;;;30.08;32.19;100959.97;1773765;80;20417;-64
2021/07/09 10:22:56;;;;;;;;;;;;;;;30.04;32.15;100968.09;1755679;79;21190;-65
2021/07/09 10:25:25;;;;;;;;;;;;;;;29.97;32.48;100959.13;1762555;81;20116;-74
2021/07/09 10:27:52;;;;;;;;;;;;;;;29.93;32.67;100969.92;1727804;81;20089;-68
2021/07/09 10:30:19;;;;;;;;;;;;;;;29.82;32.60;100958.64;1763715;81;20548;-73
2021/07/09 10:32:48;;;;;;;;;;;;;;;29.75;32.62;100955.05;1758935;81;20391;-83
2021/07/09 10:35:35;;;;;;;;;;;;;;;29.71;32.27;100955.61;1754142;81;21105;-79
2021/07/09 10:38:14;;;;;;;;;;;;;;;29.61;32.51;100948.35;1741556;81;20400;-83
2021/07/09 10:40:41;;;;;;;;;;;;;;;29.58;33.18;100948.25;1752242;81;20120;-83
2021/07/09 10:43:10;;;;;;;;;;;;;;;29.62;33.14;100952.70;1753505;81;20152;-74
2021/07/09 10:45:39;;;;;;;;;;;;;;;29.61;33.93;100948.35;1753102;81;20231;-78
2021/07/09 10:48:09;;;;;;;;;;;;;;;29.58;32.93;100958.16;1748129;81;20552;-68
2021/07/09 10:50:53;;;;;;;;;;;;;;;29.52;33.23;100953.02;1760329;81;20094;-65
2021/07/09 10:53:23;;;;;;;;;;;;;;;29.51;33.37;100956.72;1748315;81;20133;-66
2021/07/09 10:55:51;;;;;;;;;;;;;;;29.53;33.14;100952.00;1751158;81;20129;-67
2021/07/09 10:58:19;;;;;;;;;;;;;;;29.54;33.45;100945.61;1746209;80;20101;-65
2021/07/09 11:01:07;;;;;;;;;;;;;;;29.58;33.59;100945.56;1758425;80;21151;-68
2021/07/09 11:03:44;;;;;;;;;;;;;;;29.65;33.85;100945.62;1757468;81;20098;-69
2021/07/09 11:06:36;;;;;;;;;;;;;;;29.71;33.14;100938.98;1755721;80;20209;-68
2021/07/09 11:09:08;;;;;;;;;;;;;;;29.71;32.89;100949.73;1752121;81;20222;-62
2021/07/09 11:11:49;;;;;;;;;;;;;;;29.65;32.18;100942.42;1754022;80;20096;-65
2021/07/09 11:14:20;;;;;;;;;;;;;;;29.62;32.54;100934.74;1756828;80;21127;-64
2021/07/09 11:17:00;;;;;;;;;;;;;;;29.62;33.03;100939.28;1762456;80;20081;-64
2021/07/09 11:19:32;;;;;;;;;;;;;;;29.62;32.38;100924.52;1749768;82;20116;-65
2021/07/09 11:22:07;;;;;;;;;;;;;;;29.61;32.55;100921.52;1751114;80;20176;-66
2021/07/09 11:24:37;;;;;;;;;;;;;;;29.61;32.22;100915.63;1754769;80;20201;-66
2021/07/09 11:27:04;;;;;;;;;;;;;;;29.61;32.43;100912.95;1753639;80;22381;-68
2021/07/09 11:29:41;;;;;;;;;;;;;;;29.57;32.56;100909.01;1784202;80;20405;-66
2021/07/09 11:32:14;;;;;;;;;;;;;;;29.51;33.26;100911.93;1755150;80;20408;-67
2021/07/09 11:34:45;;;;;;;;;;;;;;;29.50;33.62;100906.75;1774990;80;20128;-65
2021/07/09 11:37:21;;;;;;;;;;;;;;;29.52;32.96;100906.05;1748575;81;20508;-72
2021/07/09 11:39:50;;;;;;;;;;;;;;;29.54;32.88;100904.02;1748467;81;20584;-78
2021/07/09 11:42:20;;;;;;;;;;;;;;;29.57;33.51;100906.32;1753380;80;20070;-68
2021/07/09 11:44:56;;;;;;;;;;;;;;;29.59;33.41;100901.56;1765554;80;20124;-73
2021/07/09 11:47:28;;;;;;;;;;;;;;;29.58;32.77;100894.56;1749575;81;20177;-66
2021/07/09 11:50:04;;;;;;;;;;;;;;;29.58;33.35;100891.05;1755060;81;20081;-70
2021/07/09 11:52:33;;;;;;;;;;;;;;;29.56;33.80;100892.58;1748905;81;21213;-67
2021/07/09 11:55:02;;;;;;;;;;;;;;;29.56;34.28;100887.72;1749070;81;20132;-67
2021/07/09 11:57:31;;;;;;;;;;;;;;;29.59;34.63;100881.44;1735539;81;20163;-71
2021/07/09 12:00:00;;;;;;;;;;;;;;;29.61;35.63;100890.13;1766083;80;20417;-72
2021/07/09 12:02:30;;;;;;;;;;;;;;;29.57;34.61;100882.67;1759594;81;20117;-74
2021/07/09 12:04:58;;;;;;;;;;;;;;;29.49;34.95;100888.47;1747840;80;20845;-69
2021/07/09 12:07:27;;;;;;;;;;;;;;;29.44;34.95;100883.34;1751003;81;20478;-72
2021/07/09 12:10:18;;;;;;;;;;;;;;;29.33;35.26;100879.77;1749431;80;20074;-74
2021/07/09 12:12:54;;;;;;;;;;;;;;;29.25;35.23;100881.20;1761432;81;20595;-72
2021/07/09 12:15:30;;;;;;;;;;;;;;;29.19;34.96;100876.91;1753573;81;20423;-75
2021/07/09 12:18:07;;;;;;;;;;;;;;;29.19;35.78;100870.73;1760209;81;20093;-74
2021/07/09 12:20:36;;;;;;;;;;;;;;;29.20;35.41;100862.47;1754318;81;20131;-69
2021/07/09 12:23:10;;;;;;;;;;;;;;;29.26;35.66;100866.77;1753489;81;20433;-81